createdAt,value
2022-08-03T00:01:25.195Z,2.30
2022-08-03T00:03:51.754Z,2.00
2022-08-03T00:06:18.509Z,1.95
2022-08-03T00:08:45.208Z,2.05
2022-08-03T00:11:11.915Z,2.00
2022-08-03T00:13:38.664Z,2.08
2022-08-03T00:16:05.667Z,2.28
2022-08-03T00:18:32.219Z,1.85
2022-08-03T00:20:59.088Z,1.90
2022-08-03T00:23:28.378Z,2.28
2022-08-03T00:28:23.619Z,1.58
2022-08-03T00:30:53.025Z,1.80
2022-08-03T00:33:19.641Z,1.70
2022-08-03T00:35:50.755Z,1.77
2022-08-03T00:38:18.617Z,1.70
2022-08-03T00:40:45.432Z,2.10
2022-08-03T00:43:12.030Z,2.15
2022-08-03T00:45:40.425Z,2.10
2022-08-03T00:48:29.796Z,2.08
2022-08-03T00:50:55.166Z,1.75
2022-08-03T00:53:22.132Z,1.77
2022-08-03T00:55:48.728Z,2.90
2022-08-03T00:58:15.381Z,2.00
2022-08-03T01:00:42.651Z,1.83
2022-08-03T01:03:11.013Z,2.13
2022-08-03T01:06:00.439Z,1.73
2022-08-03T01:09:02.571Z,2.50
2022-08-03T01:11:31.857Z,1.95
2022-08-03T01:14:18.218Z,2.00
2022-08-03T01:17:00.518Z,2.03
2022-08-03T01:19:30.030Z,2.35
2022-08-03T01:22:05.282Z,2.20
2022-08-03T01:24:49.551Z,2.45
2022-08-03T01:27:23.154Z,1.88
2022-08-03T01:29:52.425Z,2.08
2022-08-03T01:32:59.813Z,2.33
2022-08-03T01:35:13.757Z,2.10
2022-08-03T01:38:06.949Z,2.33
2022-08-03T01:40:37.636Z,2.85
2022-08-03T01:43:06.357Z,2.50
2022-08-03T01:45:34.485Z,2.47
2022-08-03T01:48:02.503Z,2.40
2022-08-03T01:50:31.750Z,2.03
2022-08-03T01:52:59.229Z,2.30
2022-08-03T01:55:29.669Z,2.60
2022-08-03T01:58:05.377Z,2.13
2022-08-03T02:00:36.600Z,2.22
2022-08-03T02:03:06.283Z,2.35
2022-08-03T02:05:34.157Z,2.53
2022-08-03T02:08:03.409Z,2.20
2022-08-03T02:10:34.465Z,2.30
2022-08-03T02:13:02.960Z,2.60
2022-08-03T02:15:32.281Z,2.42
2022-08-03T02:18:01.803Z,2.40
2022-08-03T02:20:32.964Z,2.88
2022-08-03T02:22:59.729Z,2.47
2022-08-03T02:25:26.551Z,2.60
2022-08-03T02:27:58.109Z,2.42
2022-08-03T02:30:39.035Z,2.60
2022-08-03T02:33:10.944Z,2.47
2022-08-03T02:35:39.886Z,2.92
2022-08-03T02:38:10.173Z,2.72
2022-08-03T02:40:38.586Z,2.60
2022-08-03T02:43:16.063Z,2.70
2022-08-03T02:45:45.891Z,2.75
2022-08-03T02:48:17.339Z,3.10
2022-08-03T02:53:13.484Z,2.20
2022-08-03T02:55:43.185Z,2.42
2022-08-03T02:58:14.488Z,2.90
2022-08-03T03:00:43.955Z,2.83
2022-08-03T03:03:11.356Z,2.90
2022-08-03T03:05:53.566Z,2.80
2022-08-03T03:08:26.040Z,3.22
2022-08-03T03:10:56.802Z,3.20
2022-08-03T03:13:24.606Z,3.10
2022-08-03T03:15:52.822Z,2.90
2022-08-03T03:18:22.831Z,3.13
2022-08-03T03:20:51.546Z,2.80
2022-08-03T03:23:19.757Z,2.90
2022-08-03T03:25:46.790Z,2.47
2022-08-03T03:28:13.752Z,2.80
2022-08-03T03:30:40.450Z,2.80
2022-08-03T03:33:07.390Z,3.13
2022-08-03T03:35:37.103Z,3.17
2022-08-03T03:38:05.760Z,2.95
2022-08-03T03:40:32.446Z,2.95
2022-08-03T03:42:59.212Z,2.90
2022-08-03T03:45:27.308Z,3.22
2022-08-03T03:47:54.014Z,2.85
2022-08-03T03:50:22.268Z,2.92
2022-08-03T03:52:48.826Z,3.60
2022-08-03T03:55:17.403Z,3.60
2022-08-03T03:57:44.180Z,2.80
2022-08-03T04:00:13.171Z,2.67
2022-08-03T04:02:39.964Z,3.58
2022-08-03T04:05:26.706Z,3.60
2022-08-03T04:08:19.322Z,3.00
2022-08-03T04:11:14.023Z,3.33
2022-08-03T04:14:01.796Z,3.53
2022-08-03T04:16:32.411Z,3.08
2022-08-03T04:19:13.944Z,3.40
2022-08-03T04:21:44.305Z,3.35
2022-08-03T04:24:13.504Z,3.60
2022-08-03T04:26:43.207Z,3.28
2022-08-03T04:29:12.027Z,3.88
2022-08-03T04:31:39.919Z,2.90
2022-08-03T04:34:07.557Z,3.33
2022-08-03T04:36:39.945Z,3.47
2022-08-03T04:39:16.494Z,3.58
2022-08-03T04:42:07.103Z,3.40
2022-08-03T04:44:37.465Z,3.03
2022-08-03T04:47:04.061Z,3.83
2022-08-03T04:49:31.014Z,3.15
2022-08-03T04:51:58.449Z,3.67
2022-08-03T04:54:25.060Z,3.80
2022-08-03T04:56:51.645Z,3.17
2022-08-03T04:59:18.199Z,3.72
2022-08-03T05:01:44.902Z,4.00
2022-08-03T05:04:11.561Z,3.75
2022-08-03T05:06:39.833Z,3.65
2022-08-03T05:09:14.885Z,4.63
2022-08-03T05:11:41.509Z,2.95
2022-08-03T05:14:08.094Z,4.85
2022-08-03T05:16:34.762Z,3.05
2022-08-03T05:19:01.298Z,4.40
2022-08-03T05:21:52.167Z,4.90
2022-08-03T05:24:14.394Z,4.75
2022-08-03T05:26:41.610Z,4.18
2022-08-03T05:29:08.463Z,4.40
2022-08-03T05:31:35.024Z,5.00
2022-08-03T05:34:01.818Z,4.53
2022-08-03T05:36:28.439Z,5.05
2022-08-03T05:38:56.762Z,3.97
2022-08-03T05:41:36.833Z,4.70
2022-08-03T05:44:04.455Z,4.45
2022-08-03T05:46:31.200Z,4.60
2022-08-03T05:48:57.891Z,4.93
2022-08-03T05:51:24.587Z,4.28
2022-08-03T05:53:51.209Z,4.18
2022-08-03T05:56:17.848Z,4.13
2022-08-03T05:58:46.360Z,4.90
2022-08-03T06:01:13.285Z,4.90
2022-08-03T06:03:40.001Z,3.97
2022-08-03T06:06:06.719Z,4.20
2022-08-03T06:08:34.508Z,5.68
2022-08-03T06:11:01.183Z,5.47
2022-08-03T06:13:27.802Z,5.10
2022-08-03T06:15:54.402Z,5.10
2022-08-03T06:18:21.161Z,4.18
2022-08-03T06:20:49.618Z,3.65
2022-08-03T06:23:18.509Z,4.63
2022-08-03T06:25:45.703Z,4.25
2022-08-03T06:28:52.598Z,5.30
2022-08-03T06:31:06.602Z,5.32
2022-08-03T06:34:30.680Z,3.90
2022-08-03T06:36:20.398Z,4.80
2022-08-03T06:38:47.143Z,4.63
2022-08-03T06:41:13.709Z,5.22
2022-08-03T06:44:02.602Z,4.28
2022-08-03T06:46:27.273Z,4.38
2022-08-03T06:48:53.952Z,4.88
2022-08-03T06:51:20.521Z,4.40
2022-08-03T06:53:47.109Z,4.95
2022-08-03T06:56:13.715Z,5.05
2022-08-03T06:58:40.553Z,4.28
2022-08-03T07:01:07.225Z,4.40
2022-08-03T07:03:33.868Z,4.00
2022-08-03T07:06:00.771Z,3.95
2022-08-03T07:08:34.329Z,4.35
2022-08-03T07:11:01.639Z,3.95
2022-08-03T07:13:28.280Z,3.72
2022-08-03T07:15:56.319Z,3.30
2022-08-03T07:18:29.677Z,3.13
2022-08-03T07:20:57.877Z,4.65
2022-08-03T07:23:25.393Z,3.35
2022-08-03T07:25:52.117Z,3.08
2022-08-03T07:28:18.746Z,3.30
2022-08-03T07:30:45.354Z,2.92
2022-08-03T07:33:12.016Z,3.30
2022-08-03T07:35:38.905Z,2.40
2022-08-03T07:38:05.511Z,2.70
2022-08-03T07:40:32.295Z,2.40
2022-08-03T07:43:00.086Z,2.40
2022-08-03T07:45:26.900Z,2.30
2022-08-03T07:47:54.259Z,2.05
2022-08-03T07:50:22.355Z,2.53
2022-08-03T07:52:50.247Z,2.13
2022-08-03T07:55:19.474Z,2.33
2022-08-03T07:57:46.892Z,3.38
2022-08-03T08:00:17.050Z,2.63
2022-08-03T08:02:44.838Z,2.30
2022-08-03T08:05:12.553Z,2.90
2022-08-03T08:07:40.371Z,2.42
2022-08-03T08:10:09.843Z,2.35
2022-08-03T08:12:36.918Z,2.40
2022-08-03T08:15:04.486Z,2.15
2022-08-03T08:17:31.303Z,2.63
2022-08-03T08:19:57.965Z,2.30
2022-08-03T08:22:30.750Z,2.65
2022-08-03T08:24:59.354Z,2.45
2022-08-03T08:27:26.086Z,2.70
2022-08-03T08:29:55.407Z,2.72
2022-08-03T08:32:23.391Z,2.40
2022-08-03T08:34:50.119Z,2.33
2022-08-03T08:37:16.767Z,2.78
2022-08-03T08:39:43.298Z,2.20
2022-08-03T08:42:10.332Z,2.20
2022-08-03T08:44:36.970Z,2.28
2022-08-03T08:47:04.110Z,2.60
2022-08-03T08:49:33.073Z,2.90
2022-08-03T08:52:03.342Z,2.22
2022-08-03T08:54:32.519Z,2.47
2022-08-03T08:57:02.563Z,2.75
2022-08-03T08:59:49.009Z,2.30
2022-08-03T09:02:18.620Z,2.13
2022-08-03T09:04:45.623Z,2.28
2022-08-03T09:07:20.115Z,1.92
2022-08-03T09:10:11.367Z,2.17
2022-08-03T09:12:45.629Z,2.03
2022-08-03T09:15:21.555Z,2.42
2022-08-03T09:17:51.323Z,2.17
2022-08-03T09:20:19.084Z,1.95
2022-08-03T09:22:56.511Z,2.42
2022-08-03T09:25:37.461Z,2.10
2022-08-03T09:28:07.491Z,2.22
2022-08-03T09:30:35.323Z,2.20
2022-08-03T09:33:04.325Z,2.30
2022-08-03T09:38:28.275Z,1.25
2022-08-03T09:40:59.827Z,1.88
2022-08-03T09:43:27.905Z,1.40
2022-08-03T09:46:03.997Z,1.60
2022-08-03T09:48:31.820Z,1.67
2022-08-03T09:51:13.627Z,1.58
2022-08-03T09:53:58.832Z,1.65
2022-08-03T09:56:39.303Z,1.42
2022-08-03T09:59:05.990Z,1.52
2022-08-03T10:01:35.012Z,1.98
2022-08-03T10:04:03.911Z,2.03
2022-08-03T10:06:31.181Z,2.15
2022-08-03T10:09:15.316Z,1.55
2022-08-03T10:11:43.121Z,1.40
2022-08-03T10:14:18.807Z,1.48
2022-08-03T10:16:46.905Z,2.30
2022-08-03T10:19:15.109Z,1.40
2022-08-03T10:21:53.597Z,1.20
2022-08-03T10:24:26.085Z,1.25
2022-08-03T10:26:56.965Z,1.40
2022-08-03T10:31:58.019Z,1.50
2022-08-03T10:34:33.778Z,2.00
2022-08-03T10:37:03.314Z,1.27
2022-08-03T10:39:30.700Z,1.38
2022-08-03T10:41:58.845Z,1.30
2022-08-03T10:44:34.262Z,1.40
2022-08-03T10:47:01.131Z,1.42
2022-08-03T10:49:34.393Z,1.30
2022-08-03T10:52:13.774Z,1.23
2022-08-03T10:55:09.982Z,1.35
2022-08-03T10:57:58.760Z,1.30
2022-08-03T11:00:28.338Z,1.50
2022-08-03T11:03:04.162Z,1.45
2022-08-03T11:05:33.010Z,1.70
2022-08-03T11:08:17.947Z,1.30
2022-08-03T11:10:44.564Z,1.13
2022-08-03T11:13:16.897Z,1.10
2022-08-03T11:15:46.535Z,1.40
2022-08-03T11:18:14.534Z,0.90
2022-08-03T11:20:55.520Z,1.20
2022-08-03T11:26:28.464Z,1.73
2022-08-03T11:29:27.973Z,1.77
2022-08-03T11:31:54.649Z,1.30
2022-08-03T11:34:21.280Z,1.33
2022-08-03T11:37:25.214Z,1.25
2022-08-03T11:39:55.379Z,1.50
2022-08-03T11:42:24.876Z,2.30
2022-08-03T11:44:53.838Z,1.42
2022-08-03T11:47:21.518Z,1.50
2022-08-03T11:49:50.759Z,1.65
2022-08-03T11:52:19.435Z,1.25
2022-08-03T11:54:57.109Z,1.80
2022-08-03T11:59:17.703Z,1.90
2022-08-03T12:00:30.268Z,1.23
2022-08-03T12:02:59.638Z,1.58
2022-08-03T12:05:39.137Z,1.30
2022-08-03T12:08:07.116Z,1.30
2022-08-03T12:10:35.196Z,1.75
2022-08-03T12:13:05.765Z,1.40
2022-08-03T12:15:57.490Z,1.48
2022-08-03T12:18:24.339Z,1.02
2022-08-03T12:20:53.166Z,1.35
2022-08-03T12:23:20.276Z,1.65
2022-08-03T12:25:47.770Z,1.45
2022-08-03T12:28:36.541Z,1.48
2022-08-03T12:31:07.528Z,1.55
2022-08-03T12:33:59.695Z,1.70
2022-08-03T12:36:27.470Z,1.35
2022-08-03T12:38:57.777Z,1.40
2022-08-03T12:41:34.143Z,1.40
2022-08-03T12:44:05.623Z,1.38
2022-08-03T12:46:34.127Z,1.23
2022-08-03T12:49:11.339Z,1.60
2022-08-03T12:51:57.902Z,1.90
2022-08-03T12:54:27.195Z,1.30
2022-08-03T12:56:57.984Z,1.52
2022-08-03T13:02:09.558Z,1.27
2022-08-03T13:04:37.042Z,1.30
2022-08-03T13:07:06.528Z,1.33
2022-08-03T13:09:56.851Z,1.25
2022-08-03T13:12:25.551Z,1.30
2022-08-03T13:14:55.957Z,1.50
2022-08-03T13:17:22.780Z,1.30
2022-08-03T13:19:50.529Z,1.50
2022-08-03T13:22:22.163Z,1.13
2022-08-03T13:24:52.742Z,1.13
2022-08-03T13:27:22.458Z,1.27
2022-08-03T13:30:08.537Z,1.40
2022-08-03T13:32:35.718Z,1.30
2022-08-03T13:35:05.435Z,1.10
2022-08-03T13:37:32.618Z,1.10
2022-08-03T13:40:02.674Z,1.05
2022-08-03T13:42:30.884Z,1.30
2022-08-03T13:44:57.526Z,1.20
2022-08-03T13:47:24.287Z,1.02
2022-08-03T13:49:54.366Z,1.13
2022-08-03T13:52:34.166Z,1.38
2022-08-03T13:55:02.266Z,1.15
2022-08-03T13:58:04.906Z,1.30
2022-08-03T14:00:27.006Z,0.73
2022-08-03T14:03:01.779Z,1.30
2022-08-03T14:05:31.974Z,0.82
2022-08-03T14:08:04.687Z,1.02
2022-08-03T14:10:33.643Z,0.93
2022-08-03T14:13:00.493Z,0.88
2022-08-03T14:15:28.514Z,1.13
2022-08-03T14:17:56.361Z,1.00
2022-08-03T14:20:37.338Z,1.02
2022-08-03T14:23:06.772Z,0.90
2022-08-03T14:25:50.017Z,1.13
2022-08-03T14:28:19.877Z,1.00
2022-08-03T14:30:46.516Z,1.08
2022-08-03T14:33:13.103Z,1.20
2022-08-03T14:35:39.851Z,0.73
2022-08-03T14:38:06.545Z,1.00
2022-08-03T14:40:33.237Z,1.23
2022-08-03T14:42:59.787Z,0.77
2022-08-03T14:45:26.421Z,0.60
2022-08-03T14:50:33.565Z,1.25
2022-08-03T14:50:45.460Z,0.75
2022-08-03T14:53:15.155Z,0.60
2022-08-03T14:55:50.660Z,0.73
2022-08-03T14:58:23.151Z,1.33
2022-08-03T15:00:51.413Z,0.70
2022-08-03T15:03:25.383Z,0.90
2022-08-03T15:05:53.257Z,0.63
2022-08-03T15:08:20.752Z,0.47
2022-08-03T15:10:47.938Z,0.68
2022-08-03T15:13:16.905Z,0.65
2022-08-03T15:15:43.804Z,0.60
2022-08-03T15:18:10.373Z,0.88
2022-08-03T15:20:44.288Z,0.98
2022-08-03T15:23:13.084Z,0.70
2022-08-03T15:26:04.144Z,0.70
2022-08-03T15:28:26.481Z,0.73
2022-08-03T15:30:53.203Z,0.65
2022-08-03T15:33:20.132Z,0.57
2022-08-03T15:35:47.605Z,0.50
2022-08-03T15:38:14.710Z,0.60
2022-08-03T15:40:41.586Z,0.70
2022-08-03T15:43:08.334Z,0.47
2022-08-03T15:45:36.107Z,0.60
2022-08-03T15:48:04.779Z,0.77
2022-08-03T15:50:31.538Z,0.80
2022-08-03T15:52:58.114Z,0.80
2022-08-03T15:55:24.692Z,0.60
2022-08-03T15:59:04.203Z,0.82
2022-08-03T16:00:38.074Z,0.68
2022-08-03T16:03:04.756Z,0.70
2022-08-03T16:05:32.262Z,0.68
2022-08-03T16:08:03.594Z,0.80
2022-08-03T16:10:32.047Z,0.77
2022-08-03T16:13:00.018Z,0.70
2022-08-03T16:15:27.380Z,0.63
2022-08-03T16:17:54.268Z,0.65
2022-08-03T16:20:31.152Z,0.80
2022-08-03T16:23:10.495Z,0.75
2022-08-03T16:25:42.569Z,0.60
2022-08-03T16:28:14.382Z,0.70
2022-08-03T16:30:44.485Z,0.70
2022-08-03T16:33:16.954Z,0.80
2022-08-03T16:35:45.586Z,0.65
2022-08-03T16:38:16.530Z,0.80
2022-08-03T16:40:46.876Z,0.90
2022-08-03T16:43:18.194Z,0.68
2022-08-03T16:45:46.716Z,0.80
2022-08-03T16:48:14.004Z,0.70
2022-08-03T16:50:41.219Z,0.80
2022-08-03T16:53:09.406Z,0.88
2022-08-03T16:55:48.885Z,1.20
2022-08-03T16:58:34.790Z,0.90
2022-08-03T17:01:21.057Z,0.95
2022-08-03T17:03:57.320Z,0.88
2022-08-03T17:06:33.904Z,0.70
2022-08-03T17:09:01.965Z,0.90
2022-08-03T17:11:32.134Z,0.90
2022-08-03T17:14:00.043Z,0.70
2022-08-03T17:16:27.257Z,0.88
2022-08-03T17:19:02.096Z,0.77
2022-08-03T17:21:32.299Z,0.88
2022-08-03T17:24:27.265Z,0.82
2022-08-03T17:26:55.383Z,0.77
2022-08-03T17:29:25.171Z,0.63
2022-08-03T17:31:52.982Z,0.80
2022-08-03T17:34:20.211Z,0.60
2022-08-03T17:37:03.759Z,0.77
2022-08-03T17:39:55.573Z,0.70
2022-08-03T17:42:30.127Z,0.70
2022-08-03T17:50:24.702Z,0.80
2022-08-03T17:53:06.708Z,1.15
2022-08-03T17:55:57.428Z,1.20
2022-08-03T17:58:38.114Z,1.30
2022-08-03T18:02:01.974Z,1.70
2022-08-03T18:04:30.371Z,0.82
2022-08-03T18:06:59.370Z,0.90
2022-08-03T18:10:03.864Z,0.70
2022-08-03T18:12:26.978Z,0.93
2022-08-03T18:15:01.271Z,1.10
2022-08-03T18:18:00.881Z,0.93
2022-08-03T18:20:31.229Z,0.77
2022-08-03T18:23:04.660Z,0.80
2022-08-03T18:25:42.703Z,0.98
2022-08-03T18:28:15.274Z,1.10
2022-08-03T18:30:54.154Z,1.48
2022-08-03T18:34:17.565Z,1.00
2022-08-03T18:36:21.862Z,0.93
2022-08-03T18:38:58.276Z,0.90
2022-08-03T18:41:33.191Z,1.00
2022-08-03T18:44:08.305Z,1.05
2022-08-03T18:46:48.196Z,1.17
2022-08-03T18:49:56.434Z,1.00
2022-08-03T18:52:45.778Z,0.80
2022-08-03T18:55:35.619Z,1.50
2022-08-03T18:58:25.420Z,1.10
2022-08-03T19:01:58.275Z,1.08
2022-08-03T19:04:04.534Z,1.17
2022-08-03T19:06:36.208Z,1.00
2022-08-03T19:09:13.035Z,1.67
2022-08-03T19:12:13.215Z,1.52
2022-08-03T19:15:01.177Z,1.40
2022-08-03T19:17:33.103Z,1.50
2022-08-03T19:20:05.090Z,1.35
2022-08-03T19:22:34.505Z,1.23
2022-08-03T19:25:04.043Z,1.17
2022-08-03T19:27:32.109Z,1.40
2022-08-03T19:30:03.888Z,1.48
2022-08-03T19:32:33.570Z,1.50
2022-08-03T19:35:03.694Z,1.10
2022-08-03T19:37:35.664Z,1.52
2022-08-03T19:40:10.754Z,1.05
2022-08-03T19:42:44.199Z,1.10
2022-08-03T19:45:15.417Z,1.50
2022-08-03T19:47:52.458Z,1.50
2022-08-03T19:50:20.485Z,1.02
2022-08-03T19:52:49.635Z,1.15
2022-08-03T19:55:18.459Z,1.40
2022-08-03T19:57:49.008Z,1.65
2022-08-03T20:00:19.860Z,1.50
2022-08-03T20:02:47.300Z,1.20
2022-08-03T20:05:18.565Z,1.63
2022-08-03T20:07:48.062Z,0.98
2022-08-03T20:10:16.717Z,1.50
2022-08-03T20:12:45.506Z,1.50
2022-08-03T20:15:12.608Z,1.38
2022-08-03T20:17:57.068Z,1.17
2022-08-03T20:20:37.157Z,1.23
2022-08-03T20:23:07.362Z,1.42
2022-08-03T20:25:56.986Z,1.33
2022-08-03T20:28:51.189Z,1.30
2022-08-03T20:31:21.612Z,1.23
2022-08-03T20:33:50.576Z,2.22
2022-08-03T20:36:18.733Z,1.10
2022-08-03T20:38:47.895Z,2.00
2022-08-03T20:41:16.648Z,1.48
2022-08-03T20:43:44.288Z,1.30
2022-08-03T20:46:33.695Z,1.08
2022-08-03T20:48:58.832Z,2.00
2022-08-03T20:51:50.697Z,1.52
2022-08-03T20:54:30.853Z,1.50
2022-08-03T20:57:00.767Z,1.50
2022-08-03T20:59:46.838Z,1.30
2022-08-03T21:02:19.707Z,1.73
2022-08-03T21:05:08.466Z,1.25
2022-08-03T21:08:05.463Z,1.13
2022-08-03T21:10:29.993Z,1.40
2022-08-03T21:13:15.322Z,1.20
2022-08-03T21:19:33.579Z,1.20
2022-08-03T21:22:03.375Z,1.30
2022-08-03T21:27:00.353Z,1.15
2022-08-03T21:29:28.801Z,1.33
2022-08-03T21:31:58.390Z,0.98
2022-08-03T21:34:26.724Z,1.75
2022-08-03T21:36:59.046Z,1.63
2022-08-03T21:39:26.430Z,1.48
2022-08-03T21:41:53.037Z,1.42
2022-08-03T21:44:28.717Z,1.30
2022-08-03T21:46:56.965Z,1.25
2022-08-03T21:50:07.378Z,1.20
2022-08-03T21:52:13.074Z,1.25
2022-08-03T21:54:44.556Z,1.77
2022-08-03T21:57:21.807Z,1.20
2022-08-03T21:59:56.950Z,1.27
2022-08-03T22:02:31.411Z,1.92
2022-08-03T22:04:59.219Z,1.33
2022-08-03T22:07:28.188Z,1.30
2022-08-03T22:09:56.137Z,1.50
2022-08-03T22:12:55.478Z,1.60
2022-08-03T22:15:22.237Z,1.48
2022-08-03T22:17:55.214Z,1.42
2022-08-03T22:20:24.748Z,1.52
2022-08-03T22:22:56.128Z,1.35
2022-08-03T22:25:29.371Z,1.60
2022-08-03T22:27:57.989Z,1.50
2022-08-03T22:30:25.234Z,1.70
2022-08-03T22:32:54.420Z,1.83
2022-08-03T22:35:21.851Z,1.50
2022-08-03T22:37:49.453Z,1.45
2022-08-03T22:40:16.906Z,1.52
2022-08-03T22:42:52.119Z,1.25
2022-08-03T22:46:06.845Z,1.92
2022-08-03T22:48:08.103Z,1.50
2022-08-03T22:50:35.310Z,1.20
2022-08-03T22:53:02.459Z,1.70
2022-08-03T22:55:29.061Z,1.65
2022-08-03T22:57:56.316Z,1.60
2022-08-03T23:00:29.026Z,1.52
2022-08-03T23:03:00.130Z,1.85
2022-08-03T23:06:02.060Z,1.20
2022-08-03T23:09:13.103Z,1.20
2022-08-03T23:11:46.141Z,1.85
2022-08-03T23:14:16.179Z,2.03
2022-08-03T23:16:44.384Z,1.33
2022-08-03T23:19:17.403Z,1.48
2022-08-03T23:22:02.713Z,1.25
2022-08-03T23:24:34.049Z,1.63
2022-08-03T23:27:03.729Z,1.60
2022-08-03T23:29:33.601Z,1.35
2022-08-03T23:32:01.621Z,1.40
2022-08-03T23:34:47.303Z,1.70
2022-08-03T23:37:15.272Z,1.80
2022-08-03T23:43:52.018Z,1.63
2022-08-03T23:46:22.068Z,1.77
2022-08-03T23:48:49.399Z,1.60
2022-08-03T23:51:40.122Z,1.38
2022-08-03T23:54:24.014Z,1.67
2022-08-03T23:57:18.644Z,1.50
